Time;durP1;ratioP1;P1;durP2;ratioP2;P2;SDS_P1;SDS_P2;PMS_P1;PMS_P2;Temp;Humidity;BMP_temperature;BMP_pressure;BME280_temperature;BME280_humidity;BME280_pressure;Samples;Min_cycle;Max_cycle;Signal;HPM_P1;HPM_P2
2022/11/07 00:00:29;;;;;;;0.00;0.00;;;;;;;;;;1760607;28;20533;-69
2022/11/07 00:01:21;;;;;;;0.00;0.00;;;;;;;;;;1760039;28;20813;-69
2022/11/07 00:02:14;;;;;;;0.00;0.00;;;;;;;;;;1754167;28;20197;-68
2022/11/07 00:03:05;;;;;;;0.00;0.00;;;;;;;;;;1753656;28;20702;-69
2022/11/07 00:03:57;;;;;;;0.00;0.00;;;;;;;;;;1754002;28;20631;-69
2022/11/07 00:04:48;;;;;;;0.00;0.00;;;;;;;;;;1755008;28;20197;-69
2022/11/07 00:05:41;;;;;;;0.00;0.00;;;;;;;;;;1746787;28;20628;-68
2022/11/07 00:06:32;;;;;;;0.00;0.00;;;;;;;;;;1758494;28;20300;-69
2022/11/07 00:07:24;;;;;;;0.00;0.00;;;;;;;;;;1760604;28;20205;-69
2022/11/07 00:08:16;;;;;;;0.00;0.00;;;;;;;;;;1760778;28;20205;-69
2022/11/07 00:09:08;;;;;;;0.00;0.00;;;;;;;;;;1760887;28;20201;-69
2022/11/07 00:10:00;;;;;;;0.00;0.00;;;;;;;;;;1761092;28;20335;-69
2022/11/07 00:10:53;;;;;;;0.00;0.00;;;;;;;;;;1760513;28;20243;-70
2022/11/07 00:11:45;;;;;;;0.00;0.00;;;;;;;;;;1760841;28;20197;-70
2022/11/07 00:12:36;;;;;;;0.00;0.00;;;;;;;;;;1760291;28;20247;-69
2022/11/07 00:13:29;;;;;;;0.00;0.00;;;;;;;;;;1760916;28;20236;-68
2022/11/07 00:14:20;;;;;;;0.00;0.00;;;;;;;;;;1760726;28;20251;-69
2022/11/07 00:15:12;;;;;;;0.00;0.00;;;;;;;;;;1761083;28;20293;-69
2022/11/07 00:16:04;;;;;;;0.00;0.00;;;;;;;;;;1760527;28;20327;-69
2022/11/07 00:16:56;;;;;;;0.00;0.00;;;;;;;;;;1760768;28;20235;-69
2022/11/07 00:17:47;;;;;;;0.00;0.00;;;;;;;;;;1760754;28;20276;-69
2022/11/07 00:18:39;;;;;;;0.00;0.00;;;;;;;;;;1760632;28;20197;-69
2022/11/07 00:19:31;;;;;;;0.00;0.00;;;;;;;;;;1760555;28;20240;-69
2022/11/07 00:20:23;;;;;;;0.00;0.00;;;;;;;;;;1761435;28;20605;-69
2022/11/07 00:21:14;;;;;;;0.00;0.00;;;;;;;;;;1760548;28;20201;-69
2022/11/07 00:22:06;;;;;;;0.00;0.00;;;;;;;;;;1760426;28;20558;-69
2022/11/07 00:22:57;;;;;;;0.00;0.00;;;;;;;;;;1760529;28;20229;-69
2022/11/07 00:23:50;;;;;;;0.00;0.00;;;;;;;;;;1759975;28;20196;-69
2022/11/07 00:24:41;;;;;;;0.00;0.00;;;;;;;;;;1760639;28;20314;-69
2022/11/07 00:25:33;;;;;;;0.00;0.00;;;;;;;;;;1761017;28;20243;-69
2022/11/07 00:26:24;;;;;;;0.00;0.00;;;;;;;;;;1760620;28;20303;-69
2022/11/07 00:27:16;;;;;;;0.00;0.00;;;;;;;;;;1760363;28;20224;-69
2022/11/07 00:28:08;;;;;;;0.00;0.00;;;;;;;;;;1760670;28;20638;-69
2022/11/07 00:29:00;;;;;;;0.00;0.00;;;;;;;;;;1760580;28;20250;-69
2022/11/07 00:29:51;;;;;;;0.00;0.00;;;;;;;;;;1756924;28;20297;-69
2022/11/07 00:30:43;;;;;;;0.00;0.00;;;;;;;;;;1755957;28;20201;-69
2022/11/07 00:31:34;;;;;;;0.00;0.00;;;;;;;;;;1758084;28;20204;-69
2022/11/07 00:32:26;;;;;;;0.00;0.00;;;;;;;;;;1753177;28;20296;-69
2022/11/07 00:33:17;;;;;;;0.00;0.00;;;;;;;;;;1753761;28;20296;-69
2022/11/07 00:34:09;;;;;;;0.00;0.00;;;;;;;;;;1755160;28;20233;-69
2022/11/07 00:35:00;;;;;;;0.00;0.00;;;;;;;;;;1760248;28;20530;-69
2022/11/07 00:35:52;;;;;;;0.00;0.00;;;;;;;;;;1757146;28;20565;-69
2022/11/07 00:36:44;;;;;;;0.00;0.00;;;;;;;;;;1753851;28;20237;-69
2022/11/07 00:37:36;;;;;;;0.00;0.00;;;;;;;;;;1755199;28;20254;-70
2022/11/07 00:38:27;;;;;;;0.00;0.00;;;;;;;;;;1760713;28;20244;-69
2022/11/07 00:39:20;;;;;;;0.00;0.00;;;;;;;;;;1758149;28;20666;-70
2022/11/07 00:40:11;;;;;;;0.00;0.00;;;;;;;;;;1754194;28;20241;-69
2022/11/07 00:41:04;;;;;;;0.00;0.00;;;;;;;;;;1753550;28;20235;-69
2022/11/07 00:41:55;;;;;;;0.00;0.00;;;;;;;;;;1753373;28;20292;-69
2022/11/07 00:42:47;;;;;;;0.00;0.00;;;;;;;;;;1753417;28;20532;-69
2022/11/07 00:43:38;;;;;;;0.00;0.00;;;;;;;;;;1753780;28;20297;-69
2022/11/07 00:44:30;;;;;;;0.00;0.00;;;;;;;;;;1753281;28;20212;-69
2022/11/07 00:45:21;;;;;;;0.00;0.00;;;;;;;;;;1754114;28;20252;-69
2022/11/07 00:46:13;;;;;;;0.00;0.00;;;;;;;;;;1753119;28;20252;-69
2022/11/07 00:47:05;;;;;;;0.00;0.00;;;;;;;;;;1753708;28;20289;-69
2022/11/07 00:47:56;;;;;;;0.00;0.00;;;;;;;;;;1753355;28;20293;-69
2022/11/07 00:48:49;;;;;;;0.00;0.00;;;;;;;;;;1753584;28;20649;-69
2022/11/07 00:49:40;;;;;;;0.00;0.00;;;;;;;;;;1753566;28;20288;-69
2022/11/07 00:50:32;;;;;;;0.00;0.00;;;;;;;;;;1754846;28;20202;-70
2022/11/07 00:51:23;;;;;;;0.00;0.00;;;;;;;;;;1754250;28;20292;-69
2022/11/07 00:52:15;;;;;;;0.00;0.00;;;;;;;;;;1754381;28;20208;-69
2022/11/07 00:53:06;;;;;;;0.00;0.00;;;;;;;;;;1754367;28;20267;-69
2022/11/07 00:53:59;;;;;;;0.00;0.00;;;;;;;;;;1754738;28;20194;-69
2022/11/07 00:54:51;;;;;;;0.00;0.00;;;;;;;;;;1761271;28;20566;-69
2022/11/07 00:55:43;;;;;;;0.10;0.10;;;;;;;;;;1761823;28;20422;-69
2022/11/07 00:56:34;;;;;;;0.00;0.00;;;;;;;;;;1761385;28;20208;-69
2022/11/07 00:57:26;;;;;;;0.00;0.00;;;;;;;;;;1759493;27;20208;-69
2022/11/07 00:58:17;;;;;;;0.00;0.00;;;;;;;;;;1754404;28;20217;-69
2022/11/07 00:59:09;;;;;;;0.00;0.00;;;;;;;;;;1753839;28;20344;-69
2022/11/07 01:00:00;;;;;;;0.00;0.00;;;;;;;;;;1754385;28;20225;-69
2022/11/07 01:00:51;;;;;;;0.00;0.00;;;;;;;;;;1754560;28;20658;-69
2022/11/07 01:01:43;;;;;;;0.00;0.00;;;;;;;;;;1757440;28;20196;-69
2022/11/07 01:02:34;;;;;;;0.00;0.00;;;;;;;;;;1761018;28;20243;-69
2022/11/07 01:05:54;;;;;;;0.00;0.00;;;;;;;;;;1757055;28;20391;-69
2022/11/07 01:06:47;;;;;;;0.00;0.00;;;;;;;;;;1755964;28;20534;-69
2022/11/07 01:07:38;;;;;;;0.00;0.00;;;;;;;;;;1754355;28;20296;-69
2022/11/07 01:08:31;;;;;;;0.00;0.00;;;;;;;;;;1754969;28;20288;-69
2022/11/07 01:09:23;;;;;;;0.00;0.00;;;;;;;;;;1757937;28;20237;-69
2022/11/07 01:10:15;;;;;;;0.00;0.00;;;;;;;;;;1759529;28;20501;-69
2022/11/07 01:11:08;;;;;;;0.00;0.00;;;;;;;;;;1761465;28;20201;-69
2022/11/07 01:12:00;;;;;;;0.00;0.00;;;;;;;;;;1760973;28;20247;-69
2022/11/07 01:12:52;;;;;;;0.00;0.00;;;;;;;;;;1761301;28;20193;-69
2022/11/07 01:13:43;;;;;;;0.00;0.00;;;;;;;;;;1755242;28;20229;-69
2022/11/07 01:14:35;;;;;;;0.00;0.00;;;;;;;;;;1758862;28;20201;-69
2022/11/07 01:15:26;;;;;;;0.00;0.00;;;;;;;;;;1761773;28;20257;-69
2022/11/07 01:16:18;;;;;;;0.00;0.00;;;;;;;;;;1761137;28;20312;-69
2022/11/07 01:17:09;;;;;;;0.00;0.00;;;;;;;;;;1761564;28;20349;-69
2022/11/07 01:18:01;;;;;;;0.00;0.00;;;;;;;;;;1760926;28;20270;-69
2022/11/07 01:18:52;;;;;;;0.00;0.00;;;;;;;;;;1761748;28;20648;-69
2022/11/07 01:19:44;;;;;;;0.00;0.00;;;;;;;;;;1760988;28;20215;-69
2022/11/07 01:20:35;;;;;;;0.00;0.00;;;;;;;;;;1761498;28;20236;-69
2022/11/07 01:21:27;;;;;;;0.00;0.00;;;;;;;;;;1761174;28;20230;-69
2022/11/07 01:22:18;;;;;;;0.00;0.00;;;;;;;;;;1761005;28;20204;-70
2022/11/07 01:23:10;;;;;;;0.00;0.00;;;;;;;;;;1761269;28;20203;-70
2022/11/07 01:24:02;;;;;;;0.00;0.00;;;;;;;;;;1761296;28;20224;-69
2022/11/07 01:24:54;;;;;;;0.00;0.00;;;;;;;;;;1761111;28;20618;-69
2022/11/07 01:25:46;;;;;;;0.00;0.00;;;;;;;;;;1761502;28;20783;-69
2022/11/07 01:26:40;;;;;;;0.00;0.00;;;;;;;;;;1761192;28;20288;-69
2022/11/07 01:27:31;;;;;;;0.00;0.00;;;;;;;;;;1760039;28;20239;-69
2022/11/07 01:28:22;;;;;;;0.00;0.00;;;;;;;;;;1754138;28;20259;-69
2022/11/07 01:29:14;;;;;;;0.00;0.00;;;;;;;;;;1759087;28;20650;-69
2022/11/07 01:30:06;;;;;;;0.00;0.00;;;;;;;;;;1760288;28;20530;-69
2022/11/07 01:30:58;;;;;;;0.00;0.00;;;;;;;;;;1758224;28;20212;-69
2022/11/07 01:31:49;;;;;;;0.00;0.00;;;;;;;;;;1754150;28;20567;-69
2022/11/07 01:32:41;;;;;;;0.00;0.00;;;;;;;;;;1753979;28;20244;-69
2022/11/07 01:33:33;;;;;;;0.00;0.00;;;;;;;;;;1754597;28;20337;-69
2022/11/07 01:34:25;;;;;;;0.00;0.00;;;;;;;;;;1754405;28;20205;-70
2022/11/07 01:35:16;;;;;;;0.00;0.00;;;;;;;;;;1754243;28;20216;-69
2022/11/07 01:36:09;;;;;;;0.00;0.00;;;;;;;;;;1753683;28;20236;-69
2022/11/07 01:37:00;;;;;;;0.00;0.00;;;;;;;;;;1754185;28;20204;-69
2022/11/07 01:37:52;;;;;;;0.00;0.00;;;;;;;;;;1754368;28;20201;-69
2022/11/07 01:38:44;;;;;;;0.00;0.00;;;;;;;;;;1754129;28;20229;-69
2022/11/07 01:39:37;;;;;;;0.00;0.00;;;;;;;;;;1759132;28;20232;-69
2022/11/07 01:40:28;;;;;;;0.00;0.00;;;;;;;;;;1761682;28;20246;-69
2022/11/07 01:41:22;;;;;;;0.00;0.00;;;;;;;;;;1760637;28;20201;-69
2022/11/07 01:42:15;;;;;;;0.00;0.00;;;;;;;;;;1761100;28;20272;-69
2022/11/07 01:43:06;;;;;;;0.00;0.00;;;;;;;;;;1760909;28;20197;-70
2022/11/07 01:43:59;;;;;;;0.00;0.00;;;;;;;;;;1753813;28;20229;-69
2022/11/07 01:44:58;;;;;;;0.00;0.00;;;;;;;;;;1753656;28;20667;-69
2022/11/07 01:45:49;;;;;;;0.00;0.00;;;;;;;;;;1760111;28;20904;-70
2022/11/07 01:46:42;;;;;;;0.00;0.00;;;;;;;;;;1761072;28;20197;-69
2022/11/07 01:47:35;;;;;;;0.00;0.00;;;;;;;;;;1760811;28;20240;-69
2022/11/07 01:48:27;;;;;;;0.00;0.00;;;;;;;;;;1757638;28;20210;-69
2022/11/07 01:49:20;;;;;;;0.00;0.00;;;;;;;;;;1753882;28;20643;-69
2022/11/07 01:50:12;;;;;;;0.00;0.00;;;;;;;;;;1754871;28;20202;-69
2022/11/07 01:51:04;;;;;;;0.00;0.00;;;;;;;;;;1754232;28;20209;-69
2022/11/07 01:51:57;;;;;;;0.00;0.00;;;;;;;;;;1753443;28;20208;-69
2022/11/07 01:52:50;;;;;;;0.00;0.00;;;;;;;;;;1753657;28;20269;-69
2022/11/07 01:53:42;;;;;;;0.00;0.00;;;;;;;;;;1754053;28;20312;-69
2022/11/07 01:54:35;;;;;;;0.00;0.00;;;;;;;;;;1754070;28;20229;-69
2022/11/07 01:55:28;;;;;;;0.00;0.00;;;;;;;;;;1754510;28;20292;-69
2022/11/07 01:56:23;;;;;;;0.00;0.00;;;;;;;;;;1753803;28;20318;-69
2022/11/07 01:57:18;;;;;;;0.00;0.00;;;;;;;;;;1754042;28;20209;-69
2022/11/07 01:58:09;;;;;;;0.00;0.00;;;;;;;;;;1754425;28;20233;-69
2022/11/07 01:59:01;;;;;;;0.00;0.00;;;;;;;;;;1759065;28;20255;-69
2022/11/07 01:59:54;;;;;;;0.00;0.00;;;;;;;;;;1757718;28;20237;-69
2022/11/07 02:00:46;;;;;;;0.00;0.00;;;;;;;;;;1760645;28;20197;-69
2022/11/07 02:01:37;;;;;;;0.00;0.00;;;;;;;;;;1754052;28;20714;-69
2022/11/07 02:02:29;;;;;;;0.00;0.00;;;;;;;;;;1753463;28;20575;-69
2022/11/07 02:03:20;;;;;;;0.00;0.00;;;;;;;;;;1754303;28;20214;-69
2022/11/07 02:04:13;;;;;;;0.00;0.00;;;;;;;;;;1753877;28;20623;-69
2022/11/07 02:05:05;;;;;;;0.00;0.00;;;;;;;;;;1754659;28;20259;-69
2022/11/07 02:06:00;;;;;;;0.00;0.00;;;;;;;;;;1754072;28;20289;-70
2022/11/07 02:06:53;;;;;;;0.00;0.00;;;;;;;;;;1754211;28;20233;-70
2022/11/07 02:07:46;;;;;;;0.00;0.00;;;;;;;;;;1753597;28;20709;-70
2022/11/07 02:08:38;;;;;;;0.00;0.00;;;;;;;;;;1754184;28;20575;-70
2022/11/07 02:09:30;;;;;;;0.00;0.00;;;;;;;;;;1753961;28;20296;-69
2022/11/07 02:10:22;;;;;;;0.00;0.00;;;;;;;;;;1754309;28;20229;-70
2022/11/07 02:11:15;;;;;;;0.00;0.00;;;;;;;;;;1753879;28;20240;-69
2022/11/07 02:12:07;;;;;;;0.00;0.00;;;;;;;;;;1753728;28;20240;-69
2022/11/07 02:13:00;;;;;;;0.00;0.00;;;;;;;;;;1753607;28;20836;-69
2022/11/07 02:13:51;;;;;;;0.00;0.00;;;;;;;;;;1754167;28;20198;-69
2022/11/07 02:14:43;;;;;;;0.00;0.00;;;;;;;;;;1753666;28;20396;-69
2022/11/07 02:15:35;;;;;;;0.00;0.00;;;;;;;;;;1754448;28;20206;-69
2022/11/07 02:16:27;;;;;;;0.00;0.00;;;;;;;;;;1753557;28;20283;-69
2022/11/07 02:17:18;;;;;;;0.00;0.00;;;;;;;;;;1754137;28;20229;-69
2022/11/07 02:18:10;;;;;;;0.00;0.00;;;;;;;;;;1753537;28;20271;-69
2022/11/07 02:19:02;;;;;;;0.00;0.00;;;;;;;;;;1753822;28;20212;-69
2022/11/07 02:19:55;;;;;;;0.00;0.00;;;;;;;;;;1759905;28;20197;-69
2022/11/07 02:20:47;;;;;;;0.00;0.00;;;;;;;;;;1760997;28;20258;-69
2022/11/07 02:21:44;;;;;;;0.00;0.00;;;;;;;;;;1760942;28;20261;-69
2022/11/07 02:22:38;;;;;;;0.00;0.00;;;;;;;;;;1760427;28;20307;-70
2022/11/07 02:23:35;;;;;;;0.00;0.00;;;;;;;;;;1760875;28;20216;-70
2022/11/07 02:24:29;;;;;;;0.00;0.00;;;;;;;;;;1760807;28;20193;-70
2022/11/07 02:25:21;;;;;;;0.00;0.00;;;;;;;;;;1761446;28;20262;-70
2022/11/07 02:26:13;;;;;;;0.00;0.00;;;;;;;;;;1760853;28;20213;-69
2022/11/07 02:27:08;;;;;;;0.00;0.00;;;;;;;;;;1761014;28;20601;-69
2022/11/07 02:28:01;;;;;;;0.00;0.00;;;;;;;;;;1755652;28;20267;-69
2022/11/07 02:28:55;;;;;;;0.00;0.00;;;;;;;;;;1757462;28;20224;-69
2022/11/07 02:29:47;;;;;;;0.00;0.00;;;;;;;;;;1755840;28;20232;-69
2022/11/07 02:30:39;;;;;;;0.00;0.00;;;;;;;;;;1756048;28;20201;-69
2022/11/07 02:31:30;;;;;;;0.00;0.00;;;;;;;;;;1754646;28;20320;-69
2022/11/07 02:32:22;;;;;;;0.00;0.00;;;;;;;;;;1760523;28;20224;-69
2022/11/07 02:33:17;;;;;;;0.00;0.00;;;;;;;;;;1758367;28;20264;-70
2022/11/07 02:34:09;;;;;;;0.00;0.00;;;;;;;;;;1753566;28;20251;-70
2022/11/07 02:35:02;;;;;;;0.00;0.00;;;;;;;;;;1753846;28;20205;-70
2022/11/07 02:35:55;;;;;;;0.00;0.00;;;;;;;;;;1753795;28;20538;-69
2022/11/07 02:36:46;;;;;;;0.00;0.00;;;;;;;;;;1753926;28;20248;-69
2022/11/07 02:37:40;;;;;;;0.00;0.00;;;;;;;;;;1753639;28;20251;-69
2022/11/07 02:38:32;;;;;;;0.00;0.00;;;;;;;;;;1758416;28;20364;-69
2022/11/07 02:39:24;;;;;;;0.00;0.00;;;;;;;;;;1757176;28;20258;-69
2022/11/07 02:40:16;;;;;;;0.00;0.00;;;;;;;;;;1754235;28;20209;-69
2022/11/07 02:41:10;;;;;;;0.00;0.00;;;;;;;;;;1753828;28;20541;-69
2022/11/07 02:42:02;;;;;;;0.00;0.00;;;;;;;;;;1753792;28;20671;-69
2022/11/07 02:42:54;;;;;;;0.00;0.00;;;;;;;;;;1753949;28;20546;-69
2022/11/07 02:43:48;;;;;;;0.00;0.00;;;;;;;;;;1753758;28;20228;-69
2022/11/07 02:44:40;;;;;;;0.00;0.00;;;;;;;;;;1753684;28;20324;-69
2022/11/07 02:45:33;;;;;;;0.00;0.00;;;;;;;;;;1754848;28;20240;-69
2022/11/07 02:46:25;;;;;;;0.00;0.00;;;;;;;;;;1759925;28;20262;-70
2022/11/07 02:47:17;;;;;;;0.00;0.00;;;;;;;;;;1761959;28;20692;-70
2022/11/07 02:48:09;;;;;;;0.00;0.00;;;;;;;;;;1762022;28;20193;-70
2022/11/07 02:49:00;;;;;;;0.00;0.00;;;;;;;;;;1762936;27;20196;-70
2022/11/07 02:49:52;;;;;;;0.00;0.00;;;;;;;;;;1756219;28;20194;-70
2022/11/07 02:50:43;;;;;;;0.00;0.00;;;;;;;;;;1755561;28;20247;-70
2022/11/07 02:51:35;;;;;;;0.00;0.00;;;;;;;;;;1755189;28;20656;-69
2022/11/07 02:52:26;;;;;;;0.00;0.00;;;;;;;;;;1754475;28;20692;-70
2022/11/07 02:53:18;;;;;;;0.00;0.00;;;;;;;;;;1755253;28;20208;-70
2022/11/07 02:54:09;;;;;;;0.00;0.00;;;;;;;;;;1755188;28;20205;-69
2022/11/07 02:55:02;;;;;;;0.00;0.00;;;;;;;;;;1755418;28;20225;-70
2022/11/07 02:55:55;;;;;;;0.00;0.00;;;;;;;;;;1754714;28;20213;-69
2022/11/07 02:56:47;;;;;;;0.00;0.00;;;;;;;;;;1755256;28;20631;-69
2022/11/07 02:57:38;;;;;;;0.00;0.00;;;;;;;;;;1755064;28;20220;-70
2022/11/07 02:58:30;;;;;;;0.00;0.00;;;;;;;;;;1755417;28;20204;-70
2022/11/07 02:59:21;;;;;;;0.00;0.00;;;;;;;;;;1759327;28;20213;-70
2022/11/07 03:00:14;;;;;;;0.00;0.00;;;;;;;;;;1761916;28;20270;-70
2022/11/07 03:01:05;;;;;;;0.00;0.00;;;;;;;;;;1759984;28;20224;-69
2022/11/07 03:01:57;;;;;;;0.00;0.00;;;;;;;;;;1762141;28;20233;-69
2022/11/07 03:02:49;;;;;;;0.00;0.00;;;;;;;;;;1762024;28;20245;-69
2022/11/07 03:03:42;;;;;;;0.00;0.00;;;;;;;;;;1762270;28;20197;-69
2022/11/07 03:04:33;;;;;;;0.00;0.00;;;;;;;;;;1762042;28;20236;-69
2022/11/07 03:05:25;;;;;;;0.00;0.00;;;;;;;;;;1761980;28;20236;-69
2022/11/07 03:06:17;;;;;;;0.00;0.00;;;;;;;;;;1761998;28;20296;-69
2022/11/07 03:07:09;;;;;;;0.00;0.00;;;;;;;;;;1762385;28;20207;-69
2022/11/07 03:08:00;;;;;;;0.00;0.00;;;;;;;;;;1761826;28;20618;-69
2022/11/07 03:08:52;;;;;;;0.00;0.00;;;;;;;;;;1762505;28;20197;-69
2022/11/07 03:09:44;;;;;;;0.00;0.00;;;;;;;;;;1761744;28;20208;-69
2022/11/07 03:10:36;;;;;;;0.00;0.00;;;;;;;;;;1762979;28;20284;-69
2022/11/07 03:11:28;;;;;;;0.00;0.00;;;;;;;;;;1761879;28;20307;-69
2022/11/07 03:12:20;;;;;;;0.00;0.00;;;;;;;;;;1761984;28;20653;-70
2022/11/07 03:13:11;;;;;;;0.00;0.00;;;;;;;;;;1761887;28;20246;-70
2022/11/07 03:14:03;;;;;;;0.00;0.00;;;;;;;;;;1762158;28;20193;-70
2022/11/07 03:14:54;;;;;;;0.00;0.00;;;;;;;;;;1762232;28;20201;-69
2022/11/07 03:15:46;;;;;;;0.00;0.00;;;;;;;;;;1762140;28;20317;-69
2022/11/07 03:16:37;;;;;;;0.00;0.00;;;;;;;;;;1761947;28;22183;-69
2022/11/07 03:17:29;;;;;;;0.00;0.00;;;;;;;;;;1762189;28;20626;-70
2022/11/07 03:18:20;;;;;;;0.00;0.00;;;;;;;;;;1762064;28;20243;-69
2022/11/07 03:19:13;;;;;;;0.00;0.00;;;;;;;;;;1762749;27;20224;-70
2022/11/07 03:20:04;;;;;;;0.00;0.00;;;;;;;;;;1759310;27;20202;-70
2022/11/07 03:20:56;;;;;;;0.00;0.00;;;;;;;;;;1754916;28;20198;-70
2022/11/07 03:21:49;;;;;;;0.00;0.00;;;;;;;;;;1755024;28;20213;-69
2022/11/07 03:22:41;;;;;;;0.00;0.00;;;;;;;;;;1754665;28;20201;-70
2022/11/07 03:23:33;;;;;;;0.00;0.00;;;;;;;;;;1755258;28;20233;-69
2022/11/07 03:24:25;;;;;;;0.00;0.00;;;;;;;;;;1754791;28;20224;-70
2022/11/07 03:25:16;;;;;;;0.00;0.00;;;;;;;;;;1755486;28;20209;-70
2022/11/07 03:26:08;;;;;;;0.00;0.00;;;;;;;;;;1755093;28;20193;-69
2022/11/07 03:27:00;;;;;;;0.00;0.00;;;;;;;;;;1755040;28;20198;-69
2022/11/07 03:27:52;;;;;;;0.00;0.00;;;;;;;;;;1754880;28;20568;-69
2022/11/07 03:28:43;;;;;;;0.00;0.00;;;;;;;;;;1757295;28;20292;-69
2022/11/07 03:29:35;;;;;;;0.00;0.00;;;;;;;;;;1758358;28;20629;-69
2022/11/07 03:30:26;;;;;;;0.00;0.00;;;;;;;;;;1762257;28;20238;-69
2022/11/07 03:31:18;;;;;;;0.00;0.00;;;;;;;;;;1762052;28;20211;-70
2022/11/07 03:32:10;;;;;;;0.00;0.00;;;;;;;;;;1755632;28;20263;-69
2022/11/07 03:33:02;;;;;;;0.00;0.00;;;;;;;;;;1754452;28;20221;-70
2022/11/07 03:33:53;;;;;;;0.00;0.00;;;;;;;;;;1755273;28;20667;-70
2022/11/07 03:34:45;;;;;;;0.00;0.00;;;;;;;;;;1754745;28;20569;-70
2022/11/07 03:35:36;;;;;;;0.00;0.00;;;;;;;;;;1755573;28;20462;-70
2022/11/07 03:36:28;;;;;;;0.00;0.00;;;;;;;;;;1754760;28;20288;-70
2022/11/07 03:37:19;;;;;;;0.00;0.00;;;;;;;;;;1755057;28;20690;-70
2022/11/07 03:38:11;;;;;;;0.00;0.00;;;;;;;;;;1754815;28;20205;-69
2022/11/07 03:39:02;;;;;;;0.00;0.00;;;;;;;;;;1755389;28;20296;-70
2022/11/07 03:39:54;;;;;;;0.00;0.00;;;;;;;;;;1762050;28;20201;-69
2022/11/07 03:40:46;;;;;;;0.00;0.00;;;;;;;;;;1762236;28;20212;-70
2022/11/07 03:41:38;;;;;;;0.00;0.00;;;;;;;;;;1762104;28;20529;-69
2022/11/07 03:42:30;;;;;;;0.00;0.00;;;;;;;;;;1761727;28;20247;-69
2022/11/07 03:43:22;;;;;;;0.00;0.00;;;;;;;;;;1761571;28;20228;-69
2022/11/07 03:44:13;;;;;;;0.00;0.00;;;;;;;;;;1761867;28;20250;-69
2022/11/07 03:45:06;;;;;;;0.00;0.00;;;;;;;;;;1762284;28;20632;-69
2022/11/07 03:45:57;;;;;;;0.00;0.00;;;;;;;;;;1761748;28;20292;-70
2022/11/07 03:46:49;;;;;;;0.00;0.00;;;;;;;;;;1762135;28;20224;-69
2022/11/07 03:47:41;;;;;;;0.00;0.00;;;;;;;;;;1761638;28;20353;-69
2022/11/07 03:48:33;;;;;;;0.00;0.00;;;;;;;;;;1761812;28;20196;-69
2022/11/07 03:49:24;;;;;;;0.00;0.00;;;;;;;;;;1761867;28;20657;-69
2022/11/07 03:50:17;;;;;;;0.00;0.00;;;;;;;;;;1762522;28;20215;-69
2022/11/07 03:51:09;;;;;;;0.00;0.00;;;;;;;;;;1761663;28;20240;-69
2022/11/07 03:52:01;;;;;;;0.00;0.00;;;;;;;;;;1761578;28;20201;-69
2022/11/07 03:52:52;;;;;;;0.00;0.00;;;;;;;;;;1761683;28;20701;-69
2022/11/07 03:53:44;;;;;;;0.00;0.00;;;;;;;;;;1761653;28;20231;-69
2022/11/07 03:54:35;;;;;;;0.00;0.00;;;;;;;;;;1761919;28;20236;-69
2022/11/07 03:55:27;;;;;;;0.00;0.00;;;;;;;;;;1762297;28;20585;-69
2022/11/07 03:56:18;;;;;;;0.00;0.00;;;;;;;;;;1761877;28;20231;-69
2022/11/07 03:57:10;;;;;;;0.00;0.00;;;;;;;;;;1762123;28;20290;-69
2022/11/07 03:58:03;;;;;;;0.00;0.00;;;;;;;;;;1755553;28;20638;-70
2022/11/07 03:58:55;;;;;;;0.00;0.00;;;;;;;;;;1758551;28;20209;-69
2022/11/07 03:59:46;;;;;;;0.00;0.00;;;;;;;;;;1757815;28;20232;-69
2022/11/07 04:00:38;;;;;;;0.00;0.00;;;;;;;;;;1762429;28;20232;-69
2022/11/07 04:01:29;;;;;;;0.00;0.00;;;;;;;;;;1761037;28;20232;-69
2022/11/07 04:02:22;;;;;;;0.00;0.00;;;;;;;;;;1754651;28;20236;-69
2022/11/07 04:03:13;;;;;;;0.00;0.00;;;;;;;;;;1761629;28;20205;-69
2022/11/07 04:04:05;;;;;;;0.00;0.00;;;;;;;;;;1761538;28;20197;-69
2022/11/07 04:04:56;;;;;;;0.00;0.00;;;;;;;;;;1761859;28;20235;-69
2022/11/07 04:05:48;;;;;;;0.00;0.00;;;;;;;;;;1762016;28;20637;-69
2022/11/07 04:06:39;;;;;;;0.00;0.00;;;;;;;;;;1761906;28;20610;-70
2022/11/07 04:07:31;;;;;;;0.00;0.00;;;;;;;;;;1761722;28;20201;-69
2022/11/07 04:08:22;;;;;;;0.00;0.00;;;;;;;;;;1761764;28;20200;-70
2022/11/07 04:09:14;;;;;;;0.00;0.00;;;;;;;;;;1761606;28;20227;-69
2022/11/07 04:10:06;;;;;;;0.00;0.00;;;;;;;;;;1761762;28;20239;-70
2022/11/07 04:10:58;;;;;;;0.00;0.00;;;;;;;;;;1761705;28;20584;-69
2022/11/07 04:17:39;;;;;;;0.00;0.00;;;;;;;;;;1761631;28;20212;-70
2022/11/07 04:18:30;;;;;;;0.00;0.00;;;;;;;;;;1761767;28;20315;-70
2022/11/07 04:19:22;;;;;;;0.00;0.00;;;;;;;;;;1761731;28;20820;-70
2022/11/07 04:20:17;;;;;;;0.00;0.00;;;;;;;;;;1761867;28;20695;-70
2022/11/07 04:21:08;;;;;;;0.00;0.00;;;;;;;;;;1761332;28;20608;-70
2022/11/07 04:22:00;;;;;;;0.00;0.00;;;;;;;;;;1761555;28;20235;-70
2022/11/07 04:22:51;;;;;;;0.00;0.00;;;;;;;;;;1758924;28;20286;-70
2022/11/07 04:23:43;;;;;;;0.00;0.00;;;;;;;;;;1754950;28;20202;-70
2022/11/07 04:24:34;;;;;;;0.00;0.00;;;;;;;;;;1754413;28;20587;-70
2022/11/07 04:27:42;;;;;;;0.00;0.00;;;;;;;;;;1751692;28;20248;-71
2022/11/07 04:28:33;;;;;;;0.00;0.00;;;;;;;;;;1760609;28;20216;-70
2022/11/07 04:29:26;;;;;;;0.00;0.00;;;;;;;;;;1761420;28;20233;-70
2022/11/07 04:30:18;;;;;;;0.00;0.00;;;;;;;;;;1762270;28;20240;-70
2022/11/07 04:31:10;;;;;;;0.00;0.00;;;;;;;;;;1754887;28;20248;-70
2022/11/07 04:32:01;;;;;;;0.00;0.00;;;;;;;;;;1759558;28;20235;-70
2022/11/07 04:32:54;;;;;;;0.00;0.00;;;;;;;;;;1757189;28;20225;-70
2022/11/07 04:33:45;;;;;;;0.00;0.00;;;;;;;;;;1754888;28;20642;-70
2022/11/07 04:34:37;;;;;;;0.00;0.00;;;;;;;;;;1754540;28;20202;-70
2022/11/07 04:35:29;;;;;;;0.00;0.00;;;;;;;;;;1754889;28;20253;-70
2022/11/07 04:36:21;;;;;;;0.00;0.00;;;;;;;;;;1754250;28;20289;-71
2022/11/07 04:37:13;;;;;;;0.00;0.00;;;;;;;;;;1754465;28;20259;-71
2022/11/07 04:38:04;;;;;;;0.00;0.00;;;;;;;;;;1754647;28;20626;-71
2022/11/07 04:38:56;;;;;;;0.00;0.00;;;;;;;;;;1754749;28;20194;-70
2022/11/07 04:39:47;;;;;;;0.00;0.00;;;;;;;;;;1760799;28;20491;-70
2022/11/07 04:40:39;;;;;;;0.00;0.00;;;;;;;;;;1762041;28;20281;-70
2022/11/07 04:41:30;;;;;;;0.00;0.00;;;;;;;;;;1761077;28;20321;-71
2022/11/07 04:42:22;;;;;;;0.00;0.00;;;;;;;;;;1761522;28;20201;-70
2022/11/07 04:43:13;;;;;;;0.00;0.00;;;;;;;;;;1761481;28;20328;-71
2022/11/07 04:44:06;;;;;;;0.00;0.00;;;;;;;;;;1761493;28;20590;-70
2022/11/07 04:44:58;;;;;;;0.00;0.00;;;;;;;;;;1761548;28;20574;-70
2022/11/07 04:45:50;;;;;;;0.00;0.00;;;;;;;;;;1761612;28;20522;-70
2022/11/07 04:46:41;;;;;;;0.00;0.00;;;;;;;;;;1761458;28;20228;-70
2022/11/07 04:47:33;;;;;;;0.00;0.00;;;;;;;;;;1761253;28;20225;-70
2022/11/07 04:48:24;;;;;;;0.00;0.00;;;;;;;;;;1761702;28;20577;-70
2022/11/07 04:49:16;;;;;;;0.00;0.00;;;;;;;;;;1761645;28;20232;-70
2022/11/07 04:50:08;;;;;;;0.00;0.00;;;;;;;;;;1762084;28;20211;-70
2022/11/07 04:51:00;;;;;;;0.00;0.00;;;;;;;;;;1761251;28;20269;-71
2022/11/07 04:51:55;;;;;;;0.00;0.00;;;;;;;;;;1756556;28;20412;-70
2022/11/07 04:52:47;;;;;;;0.00;0.00;;;;;;;;;;1753756;28;20238;-70
2022/11/07 04:53:38;;;;;;;0.00;0.00;;;;;;;;;;1754580;28;20583;-70
2022/11/07 04:54:30;;;;;;;0.00;0.00;;;;;;;;;;1754279;28;20197;-70
2022/11/07 04:55:22;;;;;;;0.00;0.00;;;;;;;;;;1755099;28;20269;-70
2022/11/07 04:56:14;;;;;;;0.00;0.00;;;;;;;;;;1754254;28;20202;-70
2022/11/07 04:57:05;;;;;;;0.00;0.00;;;;;;;;;;1754509;28;20536;-70
2022/11/07 04:57:57;;;;;;;0.00;0.00;;;;;;;;;;1754167;28;20216;-71
2022/11/07 04:58:48;;;;;;;0.00;0.00;;;;;;;;;;1757423;28;20701;-71
2022/11/07 04:59:40;;;;;;;0.00;0.00;;;;;;;;;;1754294;28;20338;-71
2022/11/07 05:00:33;;;;;;;0.00;0.00;;;;;;;;;;1754661;28;20216;-71
2022/11/07 05:01:25;;;;;;;0.00;0.00;;;;;;;;;;1761430;28;20219;-71
2022/11/07 05:02:16;;;;;;;0.00;0.00;;;;;;;;;;1761102;28;20303;-71
2022/11/07 05:03:09;;;;;;;0.00;0.00;;;;;;;;;;1761252;28;20705;-71
2022/11/07 05:04:00;;;;;;;0.00;0.00;;;;;;;;;;1761480;28;20229;-71
2022/11/07 05:04:52;;;;;;;0.00;0.00;;;;;;;;;;1760937;28;20257;-71
2022/11/07 05:05:43;;;;;;;0.00;0.00;;;;;;;;;;1761679;28;20609;-70
2022/11/07 05:06:35;;;;;;;0.00;0.00;;;;;;;;;;1754200;28;20209;-71
2022/11/07 05:07:27;;;;;;;0.00;0.00;;;;;;;;;;1754300;28;20234;-71
2022/11/07 05:08:19;;;;;;;0.00;0.00;;;;;;;;;;1754073;28;20198;-71
2022/11/07 05:09:14;;;;;;;0.00;0.00;;;;;;;;;;1754436;28;20236;-71
2022/11/07 05:10:07;;;;;;;0.00;0.00;;;;;;;;;;1754397;28;20190;-71
2022/11/07 05:10:58;;;;;;;0.00;0.00;;;;;;;;;;1753914;28;20594;-71
2022/11/07 05:11:50;;;;;;;0.00;0.00;;;;;;;;;;1754249;28;20237;-71
2022/11/07 05:12:41;;;;;;;0.00;0.00;;;;;;;;;;1753956;28;20230;-71
2022/11/07 05:13:33;;;;;;;0.00;0.00;;;;;;;;;;1754384;28;20567;-71
2022/11/07 05:14:24;;;;;;;0.00;0.00;;;;;;;;;;1754130;28;20666;-71
2022/11/07 05:15:17;;;;;;;0.00;0.00;;;;;;;;;;1754598;28;20229;-71
2022/11/07 05:16:11;;;;;;;0.00;0.00;;;;;;;;;;1754151;28;20297;-70
2022/11/07 05:17:04;;;;;;;0.00;0.00;;;;;;;;;;1754134;28;20202;-70
2022/11/07 05:17:55;;;;;;;0.00;0.00;;;;;;;;;;1754128;28;20247;-71
2022/11/07 05:18:47;;;;;;;0.00;0.00;;;;;;;;;;1754024;28;20623;-70
2022/11/07 05:19:38;;;;;;;0.00;0.00;;;;;;;;;;1754148;28;20243;-70
2022/11/07 05:20:30;;;;;;;0.00;0.00;;;;;;;;;;1754544;28;20225;-70
2022/11/07 05:21:21;;;;;;;0.00;0.00;;;;;;;;;;1753891;28;20288;-70
2022/11/07 05:23:24;;;;;;;0.00;0.00;;;;;;;;;;1754139;28;20208;-70